createdAt,value
2023-04-01T00:01:17.655Z,98546.91
2023-04-01T00:03:45.587Z,98550.44
2023-04-01T00:06:15.955Z,98550.44
2023-04-01T00:08:43.104Z,98553.97
2023-04-01T00:11:09.676Z,98548.66
2023-04-01T00:13:37.102Z,98552.19
2023-04-01T00:16:13.429Z,98548.59
2023-04-01T00:18:48.385Z,98541.56
2023-04-01T00:21:16.785Z,98552.16
2023-04-01T00:23:43.416Z,98544.25
2023-04-01T00:26:10.509Z,98547.84
2023-04-01T00:28:38.125Z,98554.03
2023-04-01T00:31:09.424Z,98549.63
2023-04-01T00:33:36.629Z,98546.16
2023-04-01T00:36:20.133Z,98544.44
2023-04-01T00:38:47.967Z,98546.16
2023-04-01T00:41:16.938Z,98545.31
2023-04-01T00:43:45.602Z,98544.50
2023-04-01T00:46:12.684Z,98558.56
2023-04-01T00:48:42.960Z,98542.72
2023-04-01T00:51:21.302Z,98544.50
2023-04-01T00:53:51.041Z,98545.44
2023-04-01T00:56:41.388Z,98541.03
2023-04-01T00:59:15.437Z,98544.56
2023-04-01T01:01:43.267Z,98553.38
2023-04-01T01:04:26.672Z,98546.34
2023-04-01T01:07:13.463Z,98547.28
2023-04-01T01:09:57.526Z,98544.69
2023-04-01T01:12:49.964Z,98543.78
2023-04-01T01:15:28.460Z,98539.41
2023-04-01T01:18:17.097Z,98547.38
2023-04-01T01:20:52.913Z,98544.81
2023-04-01T01:23:31.937Z,98536.91
2023-04-01T01:26:11.861Z,98540.47
2023-04-01T01:28:58.726Z,98536.97
2023-04-01T01:31:57.916Z,98540.50
2023-04-01T01:34:46.343Z,98537.03
2023-04-01T01:37:17.430Z,98541.47
2023-04-01T01:39:47.783Z,98541.47
2023-04-01T01:42:18.563Z,98543.31
2023-04-01T01:44:48.309Z,98539.78
2023-04-01T01:47:16.791Z,98543.34
2023-04-01T01:49:46.654Z,98546.03
2023-04-01T01:52:13.864Z,98547.81
2023-04-01T01:54:55.490Z,98553.06
2023-04-01T01:57:29.227Z,98544.28
2023-04-01T02:00:13.835Z,98548.66
2023-04-01T02:02:45.022Z,98549.56
2023-04-01T02:05:16.981Z,98549.56
2023-04-01T02:07:48.001Z,98549.56
2023-04-01T02:10:19.939Z,98556.59
2023-04-01T02:12:48.820Z,98547.75
2023-04-01T02:15:17.811Z,98552.13
2023-04-01T02:17:46.888Z,98552.97
2023-04-01T02:20:22.153Z,98549.41
2023-04-01T02:22:55.416Z,98555.59
2023-04-01T02:25:29.238Z,98554.72
2023-04-01T02:27:59.308Z,98561.75
2023-04-01T02:30:29.554Z,98557.34
2023-04-01T02:32:58.769Z,98558.19
2023-04-01T02:35:28.600Z,98558.19
2023-04-01T02:37:56.362Z,98555.59
2023-04-01T02:40:25.048Z,98562.63
2023-04-01T02:42:51.873Z,98559.06
2023-04-01T02:45:18.786Z,98560.84
2023-04-01T02:47:48.030Z,98555.63
2023-04-01T02:50:14.727Z,98562.69
2023-04-01T02:52:41.242Z,98564.47
2023-04-01T02:55:08.196Z,98570.63
2023-04-01T02:57:34.993Z,98563.59
2023-04-01T03:00:01.812Z,98574.22
2023-04-01T03:02:28.553Z,98570.75
2023-04-01T03:04:55.156Z,98570.78
2023-04-01T03:07:21.649Z,98570.78
2023-04-01T03:09:48.575Z,98574.34
2023-04-01T03:12:15.865Z,98571.72
2023-04-01T03:14:49.977Z,98569.97
2023-04-01T03:17:17.155Z,98574.41
2023-04-01T03:19:43.838Z,98576.22
2023-04-01T03:22:13.869Z,98570.97
2023-04-01T03:24:40.595Z,98577.09
2023-04-01T03:27:07.070Z,98576.25
2023-04-01T03:29:33.710Z,98576.25
2023-04-01T03:32:00.520Z,98583.28
2023-04-01T03:34:27.268Z,98578.03
2023-04-01T03:36:54.032Z,98579.78
2023-04-01T03:39:20.654Z,98586.84
2023-04-01T03:41:47.807Z,98579.81
2023-04-01T03:44:14.885Z,98590.38
2023-04-01T03:46:41.995Z,98584.19
2023-04-01T03:49:12.829Z,98585.13
2023-04-01T03:51:44.545Z,98585.16
2023-04-01T03:54:12.163Z,98584.22
2023-04-01T03:56:39.406Z,98593.97
2023-04-01T03:59:09.616Z,98593.09
2023-04-01T04:01:36.648Z,98593.97
2023-04-01T04:04:03.343Z,98590.47
2023-04-01T04:06:29.992Z,98589.56
2023-04-01T04:08:56.531Z,98594.84
2023-04-01T04:11:23.913Z,98595.78
2023-04-01T04:13:53.468Z,98597.50
2023-04-01T04:16:20.786Z,98601.06
2023-04-01T04:18:54.555Z,98595.78
2023-04-01T04:21:21.103Z,98600.13
2023-04-01T04:23:47.634Z,98601.06
2023-04-01T04:26:16.774Z,98605.50
2023-04-01T04:28:49.097Z,98606.38
2023-04-01T04:31:21.888Z,98601.97
2023-04-01T04:33:51.135Z,98608.16
2023-04-01T04:36:18.931Z,98609.00
2023-04-01T04:38:48.867Z,98613.44
2023-04-01T04:41:19.076Z,98618.69
2023-04-01T04:43:56.068Z,98614.31
2023-04-01T04:46:24.322Z,98620.53
2023-04-01T04:48:56.702Z,98617.03
2023-04-01T04:51:24.131Z,98624.09
2023-04-01T04:53:51.563Z,98617.94
2023-04-01T04:56:23.375Z,98620.59
2023-04-01T04:59:08.162Z,98624.13
2023-04-01T05:01:50.647Z,98621.53
2023-04-01T05:04:17.393Z,98624.16
2023-04-01T05:06:45.977Z,98625.88
2023-04-01T05:09:13.135Z,98621.47
2023-04-01T05:11:41.012Z,98632.91
2023-04-01T05:14:12.441Z,98624.94
2023-04-01T05:16:39.083Z,98625.81
2023-04-01T05:19:05.760Z,98633.75
2023-04-01T05:21:32.701Z,98627.53
2023-04-01T05:23:59.372Z,98632.78
2023-04-01T05:26:26.545Z,98623.88
2023-04-01T05:28:53.176Z,98632.63
2023-04-01T05:31:20.950Z,98636.09
2023-04-01T05:33:49.458Z,98637.75
2023-04-01T05:36:17.641Z,98635.09
2023-04-01T05:38:46.774Z,98637.66
2023-04-01T05:41:14.566Z,98641.13
2023-04-01T05:43:44.734Z,98635.78
2023-04-01T05:46:32.216Z,98646.28
2023-04-01T05:49:07.556Z,98646.25
2023-04-01T05:51:34.247Z,98642.66
2023-04-01T05:54:00.853Z,98647.97
2023-04-01T05:56:27.752Z,98647.94
2023-04-01T05:58:55.159Z,98649.63
2023-04-01T06:01:23.710Z,98657.53
2023-04-01T06:03:50.437Z,98659.25
2023-04-01T06:06:24.543Z,98660.97
2023-04-01T06:08:52.901Z,98661.78
2023-04-01T06:11:28.741Z,98667.06
2023-04-01T06:14:33.413Z,98662.63
2023-04-01T06:17:21.616Z,98670.53
2023-04-01T06:19:57.432Z,98672.19
2023-04-01T06:22:44.265Z,98671.28
2023-04-01T06:25:29.412Z,98670.34
2023-04-01T06:28:17.705Z,98668.44
2023-04-01T06:30:53.480Z,98674.50
2023-04-01T06:33:58.682Z,98676.06
2023-04-01T06:36:48.562Z,98674.97
2023-04-01T06:39:28.226Z,98677.50
2023-04-01T06:42:33.036Z,98684.41
2023-04-01T06:45:23.482Z,98682.47
2023-04-01T06:48:33.363Z,98682.38
2023-04-01T06:51:44.913Z,98687.50
2023-04-01T06:54:38.930Z,98683.03
2023-04-01T06:57:46.258Z,98687.38
2023-04-01T07:00:22.020Z,98682.03
2023-04-01T07:02:56.646Z,98688.13
2023-04-01T07:05:23.998Z,98688.88
2023-04-01T07:07:54.635Z,98687.03
2023-04-01T07:10:25.344Z,98687.78
2023-04-01T07:13:20.169Z,98688.44
2023-04-01T07:15:57.967Z,98697.91
2023-04-01T07:18:35.623Z,98695.00
2023-04-01T07:21:06.004Z,98699.13
2023-04-01T07:23:40.277Z,98701.59
2023-04-01T07:26:26.121Z,98705.78
2023-04-01T07:29:14.272Z,98706.41
2023-04-01T07:31:53.470Z,98706.16
2023-04-01T07:34:27.233Z,98707.66
2023-04-01T07:37:19.245Z,98712.53
2023-04-01T07:40:12.387Z,98715.63
2023-04-01T07:42:59.124Z,98719.75
2023-04-01T07:45:45.344Z,98723.97
2023-04-01T07:48:24.002Z,98728.28
2023-04-01T07:51:02.749Z,98721.03
2023-04-01T07:53:38.944Z,98729.78
2023-04-01T07:56:12.744Z,98732.28
2023-04-01T07:59:00.462Z,98727.75
2023-04-01T08:02:36.327Z,98732.66
2023-04-01T08:05:19.390Z,98738.63
2023-04-01T08:08:14.214Z,98742.78
2023-04-01T08:11:31.013Z,98741.47
2023-04-01T08:14:33.344Z,98751.00
2023-04-01T08:17:43.600Z,98744.66
2023-04-01T08:20:20.322Z,98747.16
2023-04-01T08:22:51.964Z,98746.84
2023-04-01T08:25:31.193Z,98758.91
2023-04-01T08:28:04.489Z,98757.91
2023-04-01T08:30:48.541Z,98763.84
2023-04-01T08:33:27.997Z,98760.00
2023-04-01T08:36:05.052Z,98763.13
2023-04-01T08:38:43.607Z,98763.47
2023-04-01T08:41:49.402Z,98758.75
2023-04-01T08:45:09.628Z,98763.94
2023-04-01T08:47:47.648Z,98757.69
2023-04-01T08:50:43.475Z,98770.16
2023-04-01T08:53:45.738Z,98769.28
2023-04-01T08:56:26.914Z,98775.75
2023-04-01T08:59:17.822Z,98777.03
2023-04-01T09:01:59.546Z,98783.75
2023-04-01T09:04:56.920Z,98779.59
2023-04-01T09:07:47.316Z,98782.53
2023-04-01T09:10:32.357Z,98779.00
2023-04-01T09:13:11.530Z,98783.41
2023-04-01T09:16:14.221Z,98784.22
2023-04-01T09:18:50.886Z,98781.56
2023-04-01T09:21:36.445Z,98785.13
2023-04-01T09:24:13.283Z,98783.28
2023-04-01T09:26:39.672Z,98787.59
2023-04-01T09:29:59.637Z,98789.94
2023-04-01T09:32:57.123Z,98793.06
2023-04-01T09:36:03.654Z,98799.16
2023-04-01T09:38:33.352Z,98792.13
2023-04-01T09:41:09.575Z,98799.78
2023-04-01T09:44:16.401Z,98805.34
2023-04-01T09:47:31.200Z,98807.69
2023-04-01T09:50:41.269Z,98802.03
2023-04-01T09:53:37.457Z,98805.75
2023-04-01T09:56:54.224Z,98811.69
2023-04-01T09:59:57.709Z,98810.06
2023-04-01T10:02:45.632Z,98818.59
2023-04-01T10:05:33.694Z,98813.66
2023-04-01T10:08:47.941Z,98807.75
2023-04-01T10:11:28.937Z,98812.63
2023-04-01T10:14:13.639Z,98816.53
2023-04-01T10:17:16.487Z,98810.22
2023-04-01T10:20:15.120Z,98817.47
2023-04-01T10:23:19.580Z,98826.22
2023-04-01T10:26:24.144Z,98829.03
2023-04-01T10:29:39.297Z,98828.75
2023-04-01T10:32:09.398Z,98830.06
2023-04-01T10:35:15.480Z,98833.25
2023-04-01T10:38:21.035Z,98830.25
2023-04-01T10:41:13.246Z,98830.66
2023-04-01T10:44:20.087Z,98830.22
2023-04-01T10:47:27.610Z,98848.53
2023-04-01T10:50:32.764Z,98840.09
2023-04-01T10:53:35.503Z,98841.69
2023-04-01T10:56:38.045Z,98854.91
2023-04-01T10:59:44.524Z,98850.38
2023-04-01T11:03:10.193Z,98850.25
2023-04-01T11:06:27.851Z,98850.59
2023-04-01T11:09:26.114Z,98860.34
2023-04-01T11:12:30.719Z,98850.41
2023-04-01T11:15:04.335Z,98859.94
2023-04-01T11:18:13.773Z,98852.78
2023-04-01T11:21:26.731Z,98857.16
2023-04-01T11:24:23.100Z,98866.84
2023-04-01T11:27:16.399Z,98872.06
2023-04-01T11:30:17.493Z,98870.25
2023-04-01T11:32:56.231Z,98876.47
2023-04-01T11:36:08.899Z,98874.63
2023-04-01T11:38:52.348Z,98879.94
2023-04-01T11:41:46.814Z,98884.31
2023-04-01T11:45:12.925Z,98887.88
2023-04-01T11:48:05.652Z,98881.72
2023-04-01T11:51:00.261Z,98886.28
2023-04-01T11:53:57.652Z,98893.25
2023-04-01T11:56:51.259Z,98887.03
2023-04-01T11:59:33.272Z,98892.16
2023-04-01T12:02:36.186Z,98896.28
2023-04-01T12:05:33.949Z,98893.22
2023-04-01T12:08:34.945Z,98900.00
2023-04-01T12:11:16.742Z,98905.13
2023-04-01T12:13:50.306Z,98901.56
2023-04-01T12:16:45.250Z,98907.72
2023-04-01T12:19:36.711Z,98909.59
2023-04-01T12:22:57.701Z,98916.22
2023-04-01T12:25:50.338Z,98919.13
2023-04-01T12:28:43.369Z,98914.97
2023-04-01T12:31:39.234Z,98922.13
2023-04-01T12:34:27.944Z,98921.44
2023-04-01T12:37:05.507Z,98927.88
2023-04-01T12:39:53.757Z,98927.25
2023-04-01T12:42:25.965Z,98923.06
2023-04-01T12:45:31.460Z,98925.03
2023-04-01T12:48:42.937Z,98924.38
2023-04-01T12:51:18.829Z,98931.56
2023-04-01T12:53:57.541Z,98933.34
2023-04-01T12:57:06.451Z,98935.28
2023-04-01T12:59:53.303Z,98936.50
2023-04-01T13:02:29.085Z,98939.41
2023-04-01T13:05:23.499Z,98943.16
2023-04-01T13:08:10.440Z,98947.78
2023-04-01T13:11:00.492Z,98953.44
2023-04-01T13:13:43.465Z,98954.66
2023-04-01T13:16:24.061Z,98957.50
2023-04-01T13:19:28.217Z,98953.28
2023-04-01T13:22:16.760Z,98972.84
2023-04-01T13:25:02.673Z,98971.56
2023-04-01T13:27:36.622Z,98964.03
2023-04-01T13:30:26.883Z,98975.00
2023-04-01T13:33:09.624Z,98983.22
2023-04-01T13:35:55.695Z,98989.56
2023-04-01T13:38:45.492Z,98997.75
2023-04-01T13:41:39.765Z,99000.69
2023-04-01T13:44:15.725Z,99009.97
2023-04-01T13:46:57.527Z,99014.94
2023-04-01T13:50:04.042Z,99014.34
2023-04-01T13:52:31.095Z,99018.00
2023-04-01T13:55:34.246Z,99024.25
2023-04-01T13:58:31.828Z,99029.72
2023-04-01T14:01:11.977Z,99028.00
2023-04-01T14:03:41.546Z,99029.00
2023-04-01T14:06:19.876Z,99039.66
2023-04-01T14:09:20.385Z,99037.03
2023-04-01T14:12:02.326Z,99044.16
2023-04-01T14:14:37.926Z,99041.53
2023-04-01T14:17:17.320Z,99045.09
2023-04-01T14:20:08.461Z,99052.22
2023-04-01T14:22:37.593Z,99057.53
2023-04-01T14:25:37.435Z,99065.63
2023-04-01T14:28:24.831Z,99060.44
2023-04-01T14:31:13.717Z,99066.75
2023-04-01T14:33:47.165Z,99076.59
2023-04-01T14:36:39.291Z,99075.84
2023-04-01T14:39:36.971Z,99081.31
2023-04-01T14:42:25.953Z,99089.34
2023-04-01T14:45:03.819Z,99096.47
2023-04-01T14:47:55.050Z,99091.31
2023-04-01T14:50:25.498Z,99094.03
2023-04-01T14:53:12.478Z,99100.25
2023-04-01T14:55:50.367Z,99111.81
2023-04-01T14:58:19.549Z,99110.13
2023-04-01T15:01:00.307Z,99116.34
2023-04-01T15:03:54.800Z,99116.44
2023-04-01T15:06:36.326Z,99127.97
2023-04-01T15:09:11.734Z,99123.63
2023-04-01T15:12:01.078Z,99138.66
2023-04-01T15:14:46.235Z,99144.00
2023-04-01T15:17:33.134Z,99158.19
2023-04-01T15:20:43.965Z,99153.81
2023-04-01T15:23:29.143Z,99167.03
2023-04-01T15:26:22.897Z,99165.28
2023-04-01T15:29:10.461Z,99175.91
2023-04-01T15:31:49.754Z,99183.81
2023-04-01T15:34:27.200Z,99183.81
2023-04-01T15:37:24.173Z,99191.81
2023-04-01T15:40:09.388Z,99197.09
2023-04-01T15:42:53.134Z,99204.16
2023-04-01T15:45:25.773Z,99205.06
2023-04-01T15:48:11.276Z,99211.25
2023-04-01T15:53:22.403Z,99228.03
2023-04-01T15:55:58.324Z,99234.16
2023-04-01T15:58:49.677Z,99234.22
2023-04-01T16:01:40.258Z,99231.63
2023-04-01T16:04:15.851Z,99245.69
2023-04-01T16:06:58.194Z,99247.47
2023-04-01T16:10:07.008Z,99253.63
2023-04-01T16:12:49.654Z,99251.88
2023-04-01T16:15:35.757Z,99263.34
2023-04-01T16:18:25.881Z,99266.88
2023-04-01T16:20:59.928Z,99266.88
2023-04-01T16:23:43.507Z,99266.00
2023-04-01T16:26:19.254Z,99269.53
2023-04-01T16:28:56.182Z,99278.34
2023-04-01T16:31:36.873Z,99281.00
2023-04-01T16:34:19.491Z,99295.97
2023-04-01T16:36:50.625Z,99294.19
2023-04-01T16:40:02.145Z,99302.16
2023-04-01T16:42:47.184Z,99309.16
2023-04-01T16:45:25.176Z,99308.31
2023-04-01T16:47:57.667Z,99317.09
2023-04-01T16:50:56.347Z,99310.97
2023-04-01T16:53:44.594Z,99325.91
2023-04-01T16:56:11.013Z,99336.44
2023-04-01T16:58:43.288Z,99337.31
2023-04-01T17:01:25.811Z,99345.22
2023-04-01T17:03:58.465Z,99349.63
2023-04-01T17:06:40.244Z,99362.81
2023-04-01T17:09:18.891Z,99363.69
2023-04-01T17:12:18.246Z,99378.63
2023-04-01T17:15:02.968Z,99373.34
2023-04-01T17:17:44.947Z,99382.97
2023-04-01T17:20:17.343Z,99397.03
2023-04-01T17:22:59.941Z,99390.84
2023-04-01T17:25:47.784Z,99398.75
2023-04-01T17:28:47.236Z,99411.03
2023-04-01T17:31:34.130Z,99396.97
2023-04-01T17:34:07.293Z,99428.50
2023-04-01T17:36:56.718Z,99430.25
2023-04-01T17:39:38.861Z,99435.50
2023-04-01T17:42:16.317Z,99444.25
2023-04-01T17:45:11.199Z,99448.63
2023-04-01T17:48:02.227Z,99455.63
2023-04-01T17:50:49.390Z,99461.75
2023-04-01T17:53:31.222Z,99470.47
2023-04-01T17:56:18.697Z,99474.81
2023-04-01T17:59:27.666Z,99481.81
2023-04-01T18:01:54.183Z,99483.53
2023-04-01T18:04:57.887Z,99498.44
2023-04-01T18:07:55.800Z,99495.81
2023-04-01T18:10:30.900Z,99509.84
2023-04-01T18:13:34.402Z,99523.00
2023-04-01T18:16:22.330Z,99517.69
2023-04-01T18:18:57.953Z,99526.47
2023-04-01T18:21:49.341Z,99528.19
2023-04-01T18:24:19.534Z,99551.00
2023-04-01T18:27:08.345Z,99538.72
2023-04-01T18:29:49.394Z,99554.47
2023-04-01T18:32:45.941Z,99562.34
2023-04-01T18:35:18.734Z,99563.16
2023-04-01T18:38:01.575Z,99574.56
2023-04-01T18:40:50.094Z,99575.41
2023-04-01T18:43:28.455Z,99579.75
2023-04-01T18:46:00.943Z,99583.22
2023-04-01T18:48:40.731Z,99591.97
2023-04-01T18:51:16.375Z,99609.47
2023-04-01T18:54:00.215Z,99604.19
2023-04-01T18:56:35.726Z,99620.81
2023-04-01T18:59:14.686Z,99614.63
2023-04-01T19:02:01.132Z,99619.88
2023-04-01T19:04:40.521Z,99624.28
2023-04-01T19:07:40.431Z,99630.34
2023-04-01T19:10:38.289Z,99639.84
2023-04-01T19:13:32.161Z,99639.81
2023-04-01T19:16:30.067Z,99650.31
2023-04-01T19:19:04.897Z,99659.94
2023-04-01T19:21:36.581Z,99659.94
2023-04-01T19:24:50.925Z,99672.06
2023-04-01T19:27:47.155Z,99677.22
2023-04-01T19:30:39.635Z,99683.25
2023-04-01T19:33:28.217Z,99684.94
2023-04-01T19:36:19.883Z,99690.06
2023-04-01T19:38:56.543Z,99698.72
2023-04-01T19:41:23.461Z,99697.78
2023-04-01T19:44:17.247Z,99694.22
2023-04-01T19:47:09.664Z,99712.56
2023-04-01T19:49:43.099Z,99712.59
2023-04-01T19:52:21.274Z,99724.84
2023-04-01T19:54:47.853Z,99725.69
2023-04-01T19:57:37.065Z,99730.00
2023-04-01T20:00:16.099Z,99736.13
2023-04-01T20:03:27.794Z,99748.31
2023-04-01T20:06:05.895Z,99768.44
2023-04-01T20:08:35.346Z,99764.00
2023-04-01T20:11:21.900Z,99770.97
2023-04-01T20:14:13.320Z,99773.53
2023-04-01T20:16:59.669Z,99780.44
2023-04-01T20:19:36.392Z,99797.00
2023-04-01T20:22:06.468Z,99795.16
2023-04-01T20:24:43.984Z,99803.03
2023-04-01T20:27:13.372Z,99808.25
2023-04-01T20:29:57.135Z,99813.44
2023-04-01T20:32:35.997Z,99819.50
2023-04-01T20:35:37.597Z,99825.53
2023-04-01T20:39:00.014Z,99825.47
2023-04-01T20:41:38.637Z,99832.44
2023-04-01T20:44:28.232Z,99834.97
2023-04-01T20:47:19.451Z,99836.72
2023-04-01T20:50:09.523Z,99846.16
2023-04-01T20:52:45.611Z,99842.53
2023-04-01T20:55:51.712Z,99845.88
2023-04-01T20:58:42.938Z,99861.47
2023-04-01T21:01:16.850Z,99858.72
2023-04-01T21:04:10.099Z,99859.56
2023-04-01T21:06:49.677Z,99859.53
2023-04-01T21:09:46.940Z,99873.47
2023-04-01T21:12:35.861Z,99876.03
2023-04-01T21:15:23.481Z,99876.03
2023-04-01T21:17:58.981Z,99884.81
2023-04-01T21:20:51.870Z,99885.75
2023-04-01T21:23:39.085Z,99892.75
2023-04-01T21:26:50.369Z,99894.47
2023-04-01T21:29:47.905Z,99906.63
2023-04-01T21:32:20.452Z,99901.34
2023-04-01T21:34:59.688Z,99906.53
2023-04-01T21:37:59.695Z,99909.09
2023-04-01T21:40:57.581Z,99922.06
2023-04-01T21:44:09.068Z,99928.09
2023-04-01T21:47:02.672Z,99941.09
2023-04-01T21:49:50.890Z,99942.88
2023-04-01T21:52:43.833Z,99940.28
2023-04-01T21:55:25.947Z,99954.28
2023-04-01T21:58:04.609Z,99961.28
2023-04-01T22:00:34.270Z,99963.88
2023-04-01T22:03:28.436Z,99972.69
2023-04-01T22:06:36.340Z,99970.97
2023-04-01T22:09:21.450Z,99979.66
2023-04-01T22:11:54.489Z,99984.88
2023-04-01T22:14:42.952Z,99992.72
2023-04-01T22:17:28.087Z,99991.88
2023-04-01T22:20:17.573Z,99999.81
2023-04-01T22:23:11.405Z,100008.47
2023-04-01T22:26:00.972Z,100003.94
2023-04-01T22:28:49.575Z,100019.56
2023-04-01T22:31:26.128Z,100031.78
2023-04-01T22:34:02.841Z,100034.41
2023-04-01T22:36:42.921Z,100031.66
2023-04-01T22:39:37.938Z,100041.16
2023-04-01T22:42:26.793Z,100049.03
2023-04-01T22:45:24.526Z,100048.03
2023-04-01T22:48:22.299Z,100055.81
2023-04-01T22:51:45.773Z,100065.38
2023-04-01T22:54:28.260Z,100072.44
2023-04-01T22:57:15.257Z,100069.84
2023-04-01T22:59:41.740Z,100076.03
2023-04-01T23:02:30.682Z,100090.91
2023-04-01T23:05:02.256Z,100088.25
2023-04-01T23:07:50.165Z,100101.31
2023-04-01T23:10:53.706Z,100099.44
2023-04-01T23:13:28.242Z,100111.63
2023-04-01T23:15:55.696Z,100113.31
2023-04-01T23:18:37.217Z,100122.03
2023-04-01T23:21:26.660Z,100124.53
2023-04-01T23:24:11.950Z,100131.59
2023-04-01T23:26:54.504Z,100127.16
2023-04-01T23:29:23.333Z,100142.88
2023-04-01T23:31:59.278Z,100141.97
2023-04-01T23:34:32.441Z,100148.03
2023-04-01T23:37:25.542Z,100151.53
2023-04-01T23:39:55.405Z,100149.72
2023-04-01T23:42:40.213Z,100158.44
2023-04-01T23:45:18.035Z,100151.25
2023-04-01T23:47:49.808Z,100168.66
2023-04-01T23:50:26.440Z,100172.09
2023-04-01T23:52:59.283Z,100176.41
2023-04-01T23:55:33.525Z,100187.78
2023-04-01T23:58:06.378Z,100180.75
